Albany, New York
Current Conditions -  °F | °C
As of 11:51 AM on Sunday 21 Dec 2014 (Local Time) from KALB Reporting Station
Light Snow Light Snow  
Wind Chill: 23°   Ceiling: 2800
Heat Index: 29°   Visibility: 6mi
Dew Point: 23°   Wind: 6mph
Humidity: 78%   Direction: 350°N
Pressure: 30.34"   Gusts: NA
Location:  42.65°N, 73.75°W
Report Text: KALB 211651Z 35005KT 6SM -SN BR FEW013 BKN028 OVC037 M02/M05 A3034 RMK AO2 SLP279 BKN V OVC PCPN VRY LGT P0000 T10171050
Loading
Personal Weather Stations






























Interactive Weather Map New forecast layout! Learn more

10-Day Weather Forecast

Advertisements
Track Severe Weather on mobile